Time;durP1;ratioP1;P1;durP2;ratioP2;P2;SDS_P1;SDS_P2;PMS_P1;PMS_P2;Temp;Humidity;BMP_temperature;BMP_pressure;BME280_temperature;BME280_humidity;BME280_pressure;Samples;Min_cycle;Max_cycle;Signal;HPM_P1;HPM_P2
2021/09/10 00:02:49;;;;;;;;;;;;;;;;;;8159275;28;20348;-73
2021/09/10 00:06:54;;;;;;;;;;;;;;;;;;8123419;28;20358;-72
2021/09/10 00:10:59;;;;;;;;;;;;;;;;;;8130916;28;19930;-72
2021/09/10 00:15:05;;;;;;;;;;;;;;;;;;8130679;28;20290;-73
2021/09/10 00:19:10;;;;;;;;;;;;;;;;;;8131801;28;20261;-72
2021/09/10 00:23:15;;;;;;;;;;;;;;;;;;8130717;28;20107;-72
2021/09/10 00:27:20;;;;;;;;;;;;;;;;;;8132698;28;20245;-71
2021/09/10 00:31:25;;;;;;;;;;;;;;;;;;8130704;28;20384;-72
2021/09/10 00:35:30;;;;;;;;;;;;;;;;;;8131373;28;20253;-72
2021/09/10 00:39:34;;;;;;;;;;;;;;;;;;8128552;28;19952;-72
2021/09/10 00:43:40;;;;;;;;;;;;;;;;;;8130389;28;19926;-72
2021/09/10 00:47:44;;;;;;;;;;;;;;;;;;8132587;28;20239;-72
2021/09/10 00:51:49;;;;;;;;;;;;;;;;;;8129948;28;20311;-72
2021/09/10 00:55:54;;;;;;;;;;;;;;;;;;8129902;28;19970;-73
2021/09/10 00:59:59;;;;;;;;;;;;;;;;;;8130380;28;19949;-72
2021/09/10 01:04:04;;;;;;;;;;;;;;;;;;8128450;28;20334;-72
2021/09/10 01:08:12;;;;;;;;;;;;;;;;;;8131113;28;19926;-72
2021/09/10 01:12:17;;;;;;;;;;;;;;;;;;8112906;28;19926;-71
2021/09/10 01:16:22;;;;;;;;;;;;;;;;;;8113436;28;20313;-73
2021/09/10 01:20:27;;;;;;;;;;;;;;;;;;8129149;28;20289;-73
2021/09/10 01:24:37;;;;;;;;;;;;;;;;;;8128603;28;20361;-72
2021/09/10 01:28:42;;;;;;;;;;;;;;;;;;8129775;28;19926;-73
2021/09/10 01:32:47;;;;;;;;;;;;;;;;;;8129268;28;19926;-72
2021/09/10 01:36:53;;;;;;;;;;;;;;;;;;8127483;28;20346;-72
2021/09/10 01:40:59;;;;;;;;;;;;;;;;;;8129012;28;20246;-72
2021/09/10 01:45:05;;;;;;;;;;;;;;;;;;8127510;28;20273;-72
2021/09/10 01:49:10;;;;;;;;;;;;;;;;;;8128796;28;20317;-72
2021/09/10 01:53:16;;;;;;;;;;;;;;;;;;8130862;28;20323;-72
2021/09/10 01:57:21;;;;;;;;;;;;;;;;;;8112395;28;19926;-72
2021/09/10 02:01:30;;;;;;;;;;;;;;;;;;8128427;28;19948;-72
2021/09/10 02:05:35;;;;;;;;;;;;;;;;;;8133993;28;20293;-72
2021/09/10 02:09:40;;;;;;;;;;;;;;;;;;8134542;28;20255;-72
2021/09/10 02:13:44;;;;;;;;;;;;;;;;;;8133569;28;19949;-72
2021/09/10 02:17:49;;;;;;;;;;;;;;;;;;8135478;28;20362;-72
2021/09/10 02:21:54;;;;;;;;;;;;;;;;;;8135154;28;20358;-72
2021/09/10 02:25:59;;;;;;;;;;;;;;;;;;8136561;28;20234;-72
2021/09/10 02:30:05;;;;;;;;;;;;;;;;;;8135037;28;19949;-73
2021/09/10 02:34:10;;;;;;;;;;;;;;;;;;8135196;28;19948;-72
2021/09/10 02:38:15;;;;;;;;;;;;;;;;;;8132764;28;20251;-72
2021/09/10 02:42:20;;;;;;;;;;;;;;;;;;8134186;28;20269;-72
2021/09/10 02:46:25;;;;;;;;;;;;;;;;;;8133957;28;20362;-73
2021/09/10 02:50:30;;;;;;;;;;;;;;;;;;8133158;28;20358;-72
2021/09/10 02:54:35;;;;;;;;;;;;;;;;;;8116818;28;20269;-72
2021/09/10 02:58:40;;;;;;;;;;;;;;;;;;8135112;28;20381;-72
2021/09/10 03:02:45;;;;;;;;;;;;;;;;;;8134222;28;20258;-73
2021/09/10 03:06:52;;;;;;;;;;;;;;;;;;8131997;28;20356;-72
2021/09/10 03:10:56;;;;;;;;;;;;;;;;;;8133532;28;20361;-72
2021/09/10 03:15:01;;;;;;;;;;;;;;;;;;8133960;28;20255;-72
2021/09/10 03:19:06;;;;;;;;;;;;;;;;;;8131963;28;20242;-72
2021/09/10 03:23:11;;;;;;;;;;;;;;;;;;8133173;28;20346;-73
2021/09/10 03:27:16;;;;;;;;;;;;;;;;;;8131036;28;19926;-72
2021/09/10 03:31:21;;;;;;;;;;;;;;;;;;8132544;28;20274;-72
2021/09/10 03:35:26;;;;;;;;;;;;;;;;;;8134836;28;20362;-72
2021/09/10 03:39:32;;;;;;;;;;;;;;;;;;8131588;28;20346;-73
2021/09/10 03:43:37;;;;;;;;;;;;;;;;;;8131540;28;20247;-73
2021/09/10 03:47:42;;;;;;;;;;;;;;;;;;8132503;28;20285;-72
2021/09/10 03:51:48;;;;;;;;;;;;;;;;;;8132398;28;20976;-72
2021/09/10 03:55:53;;;;;;;;;;;;;;;;;;8130691;28;20334;-73
2021/09/10 03:59:58;;;;;;;;;;;;;;;;;;8130763;28;20355;-72
2021/09/10 04:04:03;;;;;;;;;;;;;;;;;;8131482;28;20416;-72
2021/09/10 04:08:08;;;;;;;;;;;;;;;;;;8114716;28;20357;-73
2021/09/10 04:12:14;;;;;;;;;;;;;;;;;;8132132;28;20262;-72
2021/09/10 04:16:19;;;;;;;;;;;;;;;;;;8131544;28;19989;-73
2021/09/10 04:20:24;;;;;;;;;;;;;;;;;;8130283;28;19989;-73
2021/09/10 04:24:29;;;;;;;;;;;;;;;;;;8128702;28;19927;-72
2021/09/10 04:28:34;;;;;;;;;;;;;;;;;;8131293;28;20253;-72
2021/09/10 04:32:40;;;;;;;;;;;;;;;;;;8131022;28;20276;-73
2021/09/10 04:36:45;;;;;;;;;;;;;;;;;;8130373;28;20353;-72
2021/09/10 04:40:50;;;;;;;;;;;;;;;;;;8130621;28;20329;-73
2021/09/10 04:44:54;;;;;;;;;;;;;;;;;;8129257;28;19926;-72
2021/09/10 04:49:00;;;;;;;;;;;;;;;;;;8133486;28;20419;-73
2021/09/10 04:53:05;;;;;;;;;;;;;;;;;;8129200;28;19930;-72
2021/09/10 04:57:10;;;;;;;;;;;;;;;;;;8129354;28;20301;-72
2021/09/10 05:01:15;;;;;;;;;;;;;;;;;;8131103;28;20532;-73
2021/09/10 05:05:20;;;;;;;;;;;;;;;;;;8103177;28;19950;-73
2021/09/10 05:09:25;;;;;;;;;;;;;;;;;;8143008;28;20261;-73
2021/09/10 05:13:29;;;;;;;;;;;;;;;;;;8130623;28;20292;-73
2021/09/10 05:17:36;;;;;;;;;;;;;;;;;;8128112;28;20257;-73
2021/09/10 05:21:41;;;;;;;;;;;;;;;;;;8129838;28;20354;-72
2021/09/10 05:25:45;;;;;;;;;;;;;;;;;;8129381;28;19926;-72
2021/09/10 05:29:50;;;;;;;;;;;;;;;;;;8129149;28;20365;-73
2021/09/10 05:36:05;;;;;;;;;;;;;;;;;;7820807;27;5765717;-72
2021/09/10 05:40:13;;;;;;;;;;;;;;;;;;8323178;28;1208;-73
2021/09/10 05:44:18;;;;;;;;;;;;;;;;;;8323833;28;1136;-72
2021/09/10 05:48:23;;;;;;;;;;;;;;;;;;8319229;28;763;-72
2021/09/10 05:52:28;;;;;;;;;;;;;;;;;;8320631;28;1918;-74
2021/09/10 05:56:34;;;;;;;;;;;;;;;;;;8324387;28;858;-72
2021/09/10 06:00:39;;;;;;;;;;;;;;;;;;8320552;28;903;-72
2021/09/10 06:04:45;;;;;;;;;;;;;;;;;;8321165;28;724;-72
2021/09/10 06:08:50;;;;;;;;;;;;;;;;;;8320451;28;769;-72
2021/09/10 06:12:54;;;;;;;;;;;;;;;;;;8322288;28;1910;-72
2021/09/10 06:16:59;;;;;;;;;;;;;;;;;;8321196;28;1042;-72
2021/09/10 06:21:04;;;;;;;;;;;;;;;;;;8320485;28;873;-72
2021/09/10 06:25:10;;;;;;;;;;;;;;;;;;8320038;28;861;-71
2021/09/10 06:29:15;;;;;;;;;;;;;;;;;;8322341;28;1091;-72
2021/09/10 06:33:20;;;;;;;;;;;;;;;;;;8327051;28;1902;-71
2021/09/10 06:37:25;;;;;;;;;;;;;;;;;;8336765;28;716;-72
2021/09/10 06:41:30;;;;;;;;;;;;;;;;;;8352824;28;685;-72
2021/09/10 06:45:35;;;;;;;;;;;;;;;;;;8342162;28;1135;-72
2021/09/10 06:49:40;;;;;;;;;;;;;;;;;;8331423;28;901;-72
2021/09/10 06:53:45;;;;;;;;;;;;;;;;;;8296968;28;1963;-72
2021/09/10 06:57:49;;;;;;;;;;;;;;;;;;8329421;28;869;-71
2021/09/10 07:01:54;;;;;;;;;;;;;;;;;;8297185;28;1052;-71
2021/09/10 07:05:59;;;;;;;;;;;;;;;;;;8313131;28;856;-71
2021/09/10 07:10:06;;;;;;;;;;;;;;;;;;8330143;28;773;-73
2021/09/10 07:14:10;;;;;;;;;;;;;;;;;;8295669;28;1976;-72
2021/09/10 07:18:15;;;;;;;;;;;;;;;;;;8331132;28;1003;-71
2021/09/10 07:22:20;;;;;;;;;;;;;;;;;;8311885;28;902;-71
2021/09/10 07:26:25;;;;;;;;;;;;;;;;;;8311131;28;787;-71
2021/09/10 07:30:30;;;;;;;;;;;;;;;;;;8328921;28;868;-70
2021/09/10 07:34:36;;;;;;;;;;;;;;;;;;8328376;28;1902;-71
2021/09/10 07:38:40;;;;;;;;;;;;;;;;;;8310988;28;1315;-71
2021/09/10 07:42:46;;;;;;;;;;;;;;;;;;8294798;28;955;-72
2021/09/10 07:46:52;;;;;;;;;;;;;;;;;;8329730;28;642;-71
2021/09/10 07:50:58;;;;;;;;;;;;;;;;;;8311802;28;733;-72
2021/09/10 07:55:03;;;;;;;;;;;;;;;;;;8310594;28;1960;-71
2021/09/10 07:59:08;;;;;;;;;;;;;;;;;;8293307;28;820;-72
2021/09/10 08:03:13;;;;;;;;;;;;;;;;;;8310584;28;865;-71
2021/09/10 08:07:18;;;;;;;;;;;;;;;;;;8328726;28;789;-72
2021/09/10 08:11:34;;;;;;;;;;;;;;;;;;8330288;28;881;-71
2021/09/10 08:15:39;;;;;;;;;;;;;;;;;;7823682;28;6278235;-71
2021/09/10 08:19:45;;;;;;;;;;;;;;;;;;8223686;28;1314;-72
2021/09/10 08:23:50;;;;;;;;;;;;;;;;;;8325425;28;754;-72
2021/09/10 08:27:55;;;;;;;;;;;;;;;;;;8328191;28;858;-71
2021/09/10 08:32:00;;;;;;;;;;;;;;;;;;8327846;28;907;-72
2021/09/10 08:36:06;;;;;;;;;;;;;;;;;;8327132;28;1968;-72
2021/09/10 08:40:11;;;;;;;;;;;;;;;;;;8328061;28;850;-72
2021/09/10 08:44:17;;;;;;;;;;;;;;;;;;8327576;28;830;-73
2021/09/10 08:48:24;;;;;;;;;;;;;;;;;;8309067;28;1137;-71
2021/09/10 08:52:29;;;;;;;;;;;;;;;;;;8310009;28;686;-72
2021/09/10 08:56:34;;;;;;;;;;;;;;;;;;8309795;28;1910;-72
2021/09/10 09:00:41;;;;;;;;;;;;;;;;;;8292929;28;973;-72
2021/09/10 09:04:46;;;;;;;;;;;;;;;;;;8309599;28;662;-72
2021/09/10 09:08:51;;;;;;;;;;;;;;;;;;8310126;28;763;-72
2021/09/10 09:16:38;;;;;;;;;;;;;;;;;;8156406;28;1944804;-73
2021/09/10 09:20:48;;;;;;;;;;;;;;;;;;8235660;28;20248;-72
2021/09/10 09:25:08;;;;;;;;;;;;;;;;;;8271181;28;19925;-72
2021/09/10 09:29:15;;;;;;;;;;;;;;;;;;8242202;28;20375;-71
2021/09/10 09:33:20;;;;;;;;;;;;;;;;;;8264263;28;20363;-72
2021/09/10 09:37:27;;;;;;;;;;;;;;;;;;8269164;28;20283;-71
2021/09/10 09:41:31;;;;;;;;;;;;;;;;;;8286423;28;19929;-73
2021/09/10 09:45:37;;;;;;;;;;;;;;;;;;8288161;28;19947;-72
2021/09/10 09:49:45;;;;;;;;;;;;;;;;;;8268871;28;20248;-73
2021/09/10 09:53:50;;;;;;;;;;;;;;;;;;8269004;28;20369;-73
2021/09/10 09:57:56;;;;;;;;;;;;;;;;;;8269690;28;20299;-72
2021/09/10 10:02:01;;;;;;;;;;;;;;;;;;8252599;28;20355;-72
2021/09/10 10:06:11;;;;;;;;;;;;;;;;;;8267742;28;20339;-72
2021/09/10 10:10:23;;;;;;;;;;;;;;;;;;8270655;28;20339;-73
2021/09/10 10:14:39;;;;;;;;;;;;;;;;;;8268926;28;20328;-73
2021/09/10 10:18:45;;;;;;;;;;;;;;;;;;8287569;28;20758;-72
2021/09/10 10:22:50;;;;;;;;;;;;;;;;;;8251711;28;20279;-72
2021/09/10 10:26:55;;;;;;;;;;;;;;;;;;8252797;28;20382;-71
2021/09/10 10:31:00;;;;;;;;;;;;;;;;;;8264167;28;20283;-72
2021/09/10 10:35:17;;;;;;;;;;;;;;;;;;8245932;28;20372;-72
2021/09/10 10:39:28;;;;;;;;;;;;;;;;;;8245476;28;20279;-73
2021/09/10 10:43:33;;;;;;;;;;;;;;;;;;8263154;28;19925;-72
2021/09/10 10:47:38;;;;;;;;;;;;;;;;;;8262357;28;19947;-72
2021/09/10 10:51:44;;;;;;;;;;;;;;;;;;8244337;28;20229;-72
2021/09/10 10:55:49;;;;;;;;;;;;;;;;;;8245174;28;19925;-73
2021/09/10 10:59:54;;;;;;;;;;;;;;;;;;8261729;28;20360;-73
2021/09/10 11:03:59;;;;;;;;;;;;;;;;;;8263939;28;20272;-72
2021/09/10 11:08:04;;;;;;;;;;;;;;;;;;8245275;28;20337;-72
2021/09/10 11:12:09;;;;;;;;;;;;;;;;;;8263674;28;20363;-72
2021/09/10 11:16:27;;;;;;;;;;;;;;;;;;8261977;28;20271;-72
2021/09/10 11:20:35;;;;;;;;;;;;;;;;;;8259517;28;20237;-73
2021/09/10 11:24:41;;;;;;;;;;;;;;;;;;8244265;28;20185;-72
2021/09/10 11:28:46;;;;;;;;;;;;;;;;;;8261734;28;20270;-73
2021/09/10 11:33:01;;;;;;;;;;;;;;;;;;8261985;28;20344;-73
2021/09/10 11:37:06;;;;;;;;;;;;;;;;;;8261293;28;19929;-72
2021/09/10 11:41:11;;;;;;;;;;;;;;;;;;8225665;28;19951;-73
2021/09/10 11:45:16;;;;;;;;;;;;;;;;;;8259238;28;19929;-71
2021/09/10 11:49:22;;;;;;;;;;;;;;;;;;8242448;28;20282;-73
2021/09/10 11:53:36;;;;;;;;;;;;;;;;;;8243510;28;20375;-72
2021/09/10 11:57:43;;;;;;;;;;;;;;;;;;8260407;28;20366;-72
2021/09/10 12:01:50;;;;;;;;;;;;;;;;;;8242038;28;20328;-72
2021/09/10 12:06:03;;;;;;;;;;;;;;;;;;8259108;28;20340;-71
2021/09/10 12:10:10;;;;;;;;;;;;;;;;;;8243871;28;19928;-71
2021/09/10 12:14:17;;;;;;;;;;;;;;;;;;8241395;28;20271;-71
2021/09/10 12:18:22;;;;;;;;;;;;;;;;;;8259673;28;20232;-72
2021/09/10 12:22:44;;;;;;;;;;;;;;;;;;8259230;28;20372;-72
2021/09/10 12:26:54;;;;;;;;;;;;;;;;;;8258658;28;20284;-73
2021/09/10 12:31:04;;;;;;;;;;;;;;;;;;8259511;28;19940;-73
2021/09/10 12:35:09;;;;;;;;;;;;;;;;;;8258579;28;20375;-72
2021/09/10 12:39:15;;;;;;;;;;;;;;;;;;8257981;28;20248;-73
2021/09/10 12:43:23;;;;;;;;;;;;;;;;;;8240540;28;20355;-72
2021/09/10 12:47:29;;;;;;;;;;;;;;;;;;8258073;28;20225;-73
2021/09/10 12:51:35;;;;;;;;;;;;;;;;;;8258043;28;20325;-72
2021/09/10 12:55:42;;;;;;;;;;;;;;;;;;8242000;28;19947;-72
2021/09/10 12:59:48;;;;;;;;;;;;;;;;;;8225144;28;20264;-72
2021/09/10 13:03:52;;;;;;;;;;;;;;;;;;8241189;28;20374;-72
2021/09/10 13:07:59;;;;;;;;;;;;;;;;;;8242759;28;20262;-72
2021/09/10 13:12:04;;;;;;;;;;;;;;;;;;8257647;28;20340;-72
2021/09/10 13:16:09;;;;;;;;;;;;;;;;;;8259695;28;20478;-72
2021/09/10 13:20:15;;;;;;;;;;;;;;;;;;8257058;28;19929;-72
2021/09/10 13:24:20;;;;;;;;;;;;;;;;;;8242674;28;20352;-72
2021/09/10 13:28:25;;;;;;;;;;;;;;;;;;8258104;28;20252;-72
2021/09/10 13:32:32;;;;;;;;;;;;;;;;;;8240959;28;20328;-72
2021/09/10 13:36:39;;;;;;;;;;;;;;;;;;8240302;28;20279;-71
2021/09/10 13:40:46;;;;;;;;;;;;;;;;;;8257747;28;19928;-71
2021/09/10 13:44:52;;;;;;;;;;;;;;;;;;8260389;28;20359;-72
2021/09/10 13:48:57;;;;;;;;;;;;;;;;;;8241493;28;20225;-72
2021/09/10 13:53:03;;;;;;;;;;;;;;;;;;8258863;28;20311;-71
2021/09/10 13:57:09;;;;;;;;;;;;;;;;;;8240663;28;20379;-71
2021/09/10 14:01:16;;;;;;;;;;;;;;;;;;8243699;28;20274;-73
2021/09/10 14:05:22;;;;;;;;;;;;;;;;;;8265741;28;20485;-71
2021/09/10 14:09:27;;;;;;;;;;;;;;;;;;8230319;28;20336;-71
2021/09/10 14:13:34;;;;;;;;;;;;;;;;;;8245094;28;19925;-71
2021/09/10 14:17:39;;;;;;;;;;;;;;;;;;8263309;28;19947;-72
2021/09/10 14:21:45;;;;;;;;;;;;;;;;;;8244924;28;20378;-72
2021/09/10 14:25:51;;;;;;;;;;;;;;;;;;8214000;28;20338;-72
2021/09/10 14:29:56;;;;;;;;;;;;;;;;;;8245387;28;20355;-72
2021/09/10 14:34:02;;;;;;;;;;;;;;;;;;8263329;28;19946;-71
2021/09/10 14:38:08;;;;;;;;;;;;;;;;;;8259571;28;20336;-71
2021/09/10 14:42:13;;;;;;;;;;;;;;;;;;8256653;28;20336;-71
2021/09/10 14:46:18;;;;;;;;;;;;;;;;;;8259684;28;20255;-73
2021/09/10 14:50:23;;;;;;;;;;;;;;;;;;8257105;28;20390;-71
2021/09/10 14:54:29;;;;;;;;;;;;;;;;;;8258759;28;19924;-71
2021/09/10 14:58:38;;;;;;;;;;;;;;;;;;8270428;28;20323;-72
2021/09/10 15:02:42;;;;;;;;;;;;;;;;;;8291320;28;20270;-71
2021/09/10 15:06:46;;;;;;;;;;;;;;;;;;8275341;28;20377;-71
2021/09/10 15:10:53;;;;;;;;;;;;;;;;;;8272576;28;20267;-71
2021/09/10 15:14:58;;;;;;;;;;;;;;;;;;8281168;28;19950;-72
2021/09/10 15:19:01;;;;;;;;;;;;;;;;;;8251687;28;20275;-71
2021/09/10 15:23:05;;;;;;;;;;;;;;;;;;8164131;28;20267;-73
2021/09/10 15:27:09;;;;;;;;;;;;;;;;;;8275382;28;20377;-72
2021/09/10 15:31:15;;;;;;;;;;;;;;;;;;8293048;28;20381;-72
2021/09/10 15:35:20;;;;;;;;;;;;;;;;;;8247652;28;20556;-72
2021/09/10 15:39:24;;;;;;;;;;;;;;;;;;8264988;28;20381;-72
2021/09/10 15:43:29;;;;;;;;;;;;;;;;;;8258393;28;20347;-72
2021/09/10 15:47:34;;;;;;;;;;;;;;;;;;8292239;28;19929;-71
2021/09/10 16:09:22;;;;;;;4.38;1.90;;;;;;;;;;8251750;27;1340524;-72
2021/09/10 16:13:28;;;;;;;4.22;1.98;;;;;;;;;;8353346;27;20382;-72
2021/09/10 16:17:32;;;;;;;7.20;2.10;;;;;;;;;;8365704;28;20409;-72
2021/09/10 16:21:36;;;;;;;6.13;1.67;;;;;;;;;;8367127;28;20370;-72
2021/09/10 16:25:40;;;;;;;12.02;2.28;;;;;;;;;;8365812;28;20323;-72
2021/09/10 16:29:44;;;;;;;4.22;2.00;;;;;;;;;;8366697;28;20054;-72
2021/09/10 16:33:48;;;;;;;8.93;3.38;;;;;;;;;;8365968;28;20463;-72
2021/09/10 16:37:54;;;;;;;24.58;4.22;;;;;;;;;;8366897;28;20040;-72
2021/09/10 16:41:57;;;;;;;14.07;2.95;;;;;;;;;;8380976;27;20346;-71
2021/09/10 16:46:01;;;;;;;7.97;2.40;;;;;;;;;;8369873;27;20466;-72
2021/09/10 16:50:07;;;;;;;14.35;2.63;;;;;;;;;;8353291;28;20044;-72
2021/09/10 17:08:59;;;;;;;8.43;2.90;;;;;;;;;;8237984;27;1402207;-73
2021/09/10 17:13:03;;;;;;;6.53;3.22;;;;;;;;;;8347557;28;20062;-72
2021/09/10 17:17:09;;;;;;;18.33;7.35;;;;;;;;;;8355482;28;20035;-72
2021/09/10 17:21:14;;;;;;;38.25;16.55;;;;;;;;;;8320378;28;20362;-73
2021/09/10 17:25:20;;;;;;;28.33;14.00;;;;;;;;;;8248090;28;20403;-72
2021/09/10 17:29:24;;;;;;;24.83;12.88;;;;;;;;;;8310851;28;20373;-72
2021/09/10 17:33:29;;;;;;;31.92;14.35;;;;;;;;;;8324535;28;20594;-73
2021/09/10 17:37:33;;;;;;;45.78;21.48;;;;;;;;;;8340779;28;20046;-71
2021/09/10 17:41:42;;;;;;;37.97;18.63;;;;;;;;;;8341043;28;20489;-72
2021/09/10 17:45:48;;;;;;;47.45;23.27;;;;;;;;;;8323957;28;20482;-73
2021/09/10 17:49:55;;;;;;;48.13;22.48;;;;;;;;;;8344307;28;20467;-72
2021/09/10 17:54:05;;;;;;;;;;;;;;;;;;8359864;28;20043;-73
2021/09/10 17:58:09;;;;;;;40.45;18.08;;;;;;;;;;8346547;28;20362;-72
2021/09/10 18:02:15;;;;;;;21.83;7.90;;;;;;;;;;8348078;28;20362;-71
2021/09/10 18:06:20;;;;;;;15.57;7.90;;;;;;;;;;8330339;28;20043;-71
2021/09/10 18:10:25;;;;;;;17.95;8.38;;;;;;;;;;8325105;28;20359;-72
2021/09/10 18:14:30;;;;;;;21.48;8.10;;;;;;;;;;8325151;28;20394;-73
2021/09/10 18:18:53;;;;;;;15.98;7.65;;;;;;;;;;8341885;28;20056;-72
2021/09/10 18:22:57;;;;;;;18.15;9.43;;;;;;;;;;8323819;28;20435;-71
2021/09/10 18:27:02;;;;;;;10.82;5.90;;;;;;;;;;8337064;28;20477;-71
2021/09/10 18:31:06;;;;;;;11.02;5.10;;;;;;;;;;8322561;28;20447;-72
2021/09/10 18:35:12;;;;;;;9.25;4.90;;;;;;;;;;8318764;28;20466;-71
2021/09/10 18:39:18;;;;;;;11.13;5.45;;;;;;;;;;8308151;28;20370;-72
2021/09/10 18:43:23;;;;;;;14.55;5.50;;;;;;;;;;8343121;28;20479;-71
2021/09/10 18:47:28;;;;;;;16.20;8.23;;;;;;;;;;8323254;28;20074;-71
2021/09/10 18:51:34;;;;;;;18.98;8.65;;;;;;;;;;8309234;28;20048;-71
2021/09/10 18:55:40;;;;;;;21.02;9.65;;;;;;;;;;8291834;28;20049;-72
2021/09/10 18:59:45;;;;;;;31.80;13.80;;;;;;;;;;8295479;28;20062;-72
2021/09/10 19:03:49;;;;;;;24.63;12.25;;;;;;;;;;8309833;28;20471;-72
2021/09/10 19:07:54;;;;;;;38.50;17.73;;;;;;;;;;8268104;28;20399;-72
2021/09/10 19:12:02;;;;;;;29.92;12.18;;;;;;;;;;8240013;28;20401;-71
2021/09/10 19:16:08;;;;;;;26.50;10.63;;;;;;;;;;8271725;28;20353;-71
2021/09/10 19:20:14;;;;;;;12.48;6.45;;;;;;;;;;8258089;28;20064;-71
2021/09/10 19:24:17;;;;;;;21.20;7.25;;;;;;;;;;8262820;28;20495;-71
2021/09/10 19:28:22;;;;;;;14.93;6.82;;;;;;;;;;8249580;28;20448;-72
2021/09/10 19:32:25;;;;;;;17.02;9.15;;;;;;;;;;8248971;28;20383;-71
2021/09/10 19:36:32;;;;;;;15.70;6.90;;;;;;;;;;8258985;28;20491;-71
2021/09/10 19:40:37;;;;;;;11.00;5.38;;;;;;;;;;8259953;28;20387;-72
2021/09/10 19:44:44;;;;;;;10.45;5.07;;;;;;;;;;8257372;28;20360;-72
2021/09/10 19:48:49;;;;;;;15.50;6.90;;;;;;;;;;8258875;28;20368;-72
2021/09/10 19:52:54;;;;;;;11.45;6.38;;;;;;;;;;8258028;28;20479;-72
2021/09/10 19:57:00;;;;;;;17.08;7.35;;;;;;;;;;8254928;28;20398;-71
2021/09/10 20:01:05;;;;;;;13.65;7.57;;;;;;;;;;8271257;28;20063;-71
2021/09/10 20:05:11;;;;;;;12.93;6.30;;;;;;;;;;8257724;28;20491;-71
2021/09/10 20:09:16;;;;;;;11.93;6.35;;;;;;;;;;8258812;28;20502;-71
2021/09/10 20:13:21;;;;;;;14.45;6.55;;;;;;;;;;8259041;28;20391;-71
2021/09/10 20:17:27;;;;;;;10.70;5.80;;;;;;;;;;8260729;28;20322;-72
2021/09/10 20:21:32;;;;;;;12.30;5.97;;;;;;;;;;8256541;28;20526;-72
2021/09/10 20:25:37;;;;;;;13.75;7.03;;;;;;;;;;8256541;28;20363;-71
2021/09/10 20:29:43;;;;;;;17.33;6.25;;;;;;;;;;8257131;28;20335;-71
2021/09/10 20:33:48;;;;;;;14.35;6.45;;;;;;;;;;8256717;28;20045;-71
2021/09/10 20:37:53;;;;;;;13.00;6.03;;;;;;;;;;8260616;28;20367;-71
2021/09/10 20:41:58;;;;;;;13.73;6.55;;;;;;;;;;8257342;28;20041;-71
2021/09/10 20:46:04;;;;;;;16.15;7.03;;;;;;;;;;8257184;28;20346;-72
2021/09/10 20:50:10;;;;;;;14.23;6.63;;;;;;;;;;8255579;28;20033;-71
2021/09/10 20:54:15;;;;;;;14.68;6.53;;;;;;;;;;8241283;28;20445;-71
2021/09/10 20:58:20;;;;;;;12.85;6.65;;;;;;;;;;8256069;28;20430;-72
2021/09/10 21:02:27;;;;;;;13.10;6.95;;;;;;;;;;8272864;28;20084;-72
2021/09/10 21:06:32;;;;;;;15.32;6.60;;;;;;;;;;8256315;28;20049;-71
2021/09/10 21:10:38;;;;;;;12.05;6.90;;;;;;;;;;8261907;28;20349;-71
2021/09/10 21:14:44;;;;;;;18.83;6.88;;;;;;;;;;8254493;28;20484;-71
2021/09/10 21:18:49;;;;;;;13.82;6.38;;;;;;;;;;8259018;28;20464;-72
2021/09/10 21:22:54;;;;;;;16.60;7.53;;;;;;;;;;8255889;28;20329;-72
2021/09/10 21:27:00;;;;;;;14.60;6.90;;;;;;;;;;8255356;28;20345;-70
2021/09/10 21:31:05;;;;;;;14.63;7.15;;;;;;;;;;8215706;28;20369;-72
2021/09/10 21:35:13;;;;;;;15.52;7.07;;;;;;;;;;8207325;28;20483;-71
2021/09/10 21:39:18;;;;;;;13.45;6.43;;;;;;;;;;8224283;28;20350;-71
2021/09/10 21:43:23;;;;;;;17.67;7.60;;;;;;;;;;8225304;28;20065;-71
2021/09/10 21:47:28;;;;;;;18.17;7.32;;;;;;;;;;8230975;28;20045;-71
2021/09/10 21:51:34;;;;;;;16.38;7.35;;;;;;;;;;8229629;28;20400;-71
2021/09/10 21:55:39;;;;;;;20.20;7.72;;;;;;;;;;8232983;28;20449;-71
2021/09/10 21:59:45;;;;;;;20.15;7.18;;;;;;;;;;8232101;28;20453;-71
2021/09/10 22:03:50;;;;;;;16.15;7.68;;;;;;;;;;8213453;28;20342;-71
2021/09/10 22:07:56;;;;;;;14.73;8.00;;;;;;;;;;8229361;28;20949;-71
2021/09/10 22:12:01;;;;;;;15.73;7.32;;;;;;;;;;8229728;28;20053;-71
2021/09/10 22:16:06;;;;;;;17.17;8.00;;;;;;;;;;8228758;28;20483;-71
2021/09/10 22:20:15;;;;;;;16.20;7.40;;;;;;;;;;8230917;28;20412;-72
2021/09/10 22:24:22;;;;;;;19.95;7.80;;;;;;;;;;8195915;28;20476;-71
2021/09/10 22:28:27;;;;;;;15.57;7.30;;;;;;;;;;8227888;28;20298;-71
2021/09/10 22:32:32;;;;;;;15.05;7.07;;;;;;;;;;8228343;28;20358;-71
2021/09/10 22:36:37;;;;;;;18.45;7.78;;;;;;;;;;8229064;28;20155;-71
2021/09/10 22:40:42;;;;;;;18.33;7.60;;;;;;;;;;8228041;28;20361;-71
2021/09/10 22:44:48;;;;;;;12.52;6.85;;;;;;;;;;8226649;28;20461;-72
2021/09/10 22:48:54;;;;;;;15.15;7.43;;;;;;;;;;8228161;28;20351;-72
2021/09/10 22:52:59;;;;;;;21.60;7.20;;;;;;;;;;8226536;28;20071;-71
2021/09/10 22:57:04;;;;;;;16.10;6.97;;;;;;;;;;8228091;28;20360;-71
2021/09/10 23:01:10;;;;;;;13.55;6.63;;;;;;;;;;8211023;28;20045;-72
2021/09/10 23:05:15;;;;;;;11.35;6.90;;;;;;;;;;8226691;28;20514;-71
2021/09/10 23:09:20;;;;;;;11.38;6.25;;;;;;;;;;8228800;28;20072;-71
2021/09/10 23:13:25;;;;;;;15.13;7.10;;;;;;;;;;8228230;28;20580;-71
2021/09/10 23:17:30;;;;;;;12.20;6.57;;;;;;;;;;8226790;28;20401;-71
2021/09/10 23:21:36;;;;;;;14.48;7.05;;;;;;;;;;8225929;28;20573;-71
2021/09/10 23:25:46;;;;;;;12.68;7.07;;;;;;;;;;8226400;28;20461;-71
2021/09/10 23:29:51;;;;;;;12.80;6.60;;;;;;;;;;8227547;28;20475;-71
2021/09/10 23:33:56;;;;;;;13.70;7.13;;;;;;;;;;8225194;28;20389;-72
2021/09/10 23:38:01;;;;;;;12.32;6.20;;;;;;;;;;8227041;28;20449;-72
2021/09/10 23:42:07;;;;;;;11.95;6.75;;;;;;;;;;8226233;28;20033;-71
2021/09/10 23:46:12;;;;;;;14.50;6.43;;;;;;;;;;8210651;28;20488;-72
2021/09/10 23:50:18;;;;;;;14.35;6.32;;;;;;;;;;8215606;28;20045;-72
2021/09/10 23:54:23;;;;;;;16.25;6.28;;;;;;;;;;8227227;28;20326;-71
2021/09/10 23:58:28;;;;;;;12.68;6.88;;;;;;;;;;8241462;28;20380;-71
